createdAt,value
2019-05-11T00:01:18.160Z,11.59
2019-05-11T00:03:47.691Z,11.46
2019-05-11T00:06:17.313Z,11.37
2019-05-11T00:08:46.802Z,11.31
2019-05-11T00:11:16.259Z,11.28
2019-05-11T00:13:45.755Z,11.26
2019-05-11T00:16:18.772Z,11.17
2019-05-11T00:18:46.446Z,11.10
2019-05-11T00:21:15.954Z,11.09
2019-05-11T00:23:45.419Z,11.09
2019-05-11T00:26:14.929Z,11.04
2019-05-11T00:28:44.677Z,10.98
2019-05-11T00:31:14.154Z,10.90
2019-05-11T00:33:43.632Z,10.83
2019-05-11T00:36:13.120Z,10.83
2019-05-11T00:38:42.618Z,10.81
2019-05-11T00:41:12.160Z,10.83
2019-05-11T00:43:41.631Z,10.79
2019-05-11T00:46:11.105Z,10.74
2019-05-11T00:48:40.642Z,10.76
2019-05-11T00:51:10.379Z,10.82
2019-05-11T00:53:39.858Z,10.86
2019-05-11T00:56:09.211Z,10.87
2019-05-11T00:58:38.730Z,10.92
2019-05-11T01:01:08.205Z,10.97
2019-05-11T01:03:37.700Z,11.00
2019-05-11T01:06:07.303Z,10.96
2019-05-11T01:08:36.766Z,10.98
2019-05-11T01:11:06.247Z,11.03
2019-05-11T01:13:35.654Z,11.10
2019-05-11T01:16:05.130Z,11.17
2019-05-11T01:18:34.687Z,11.17
2019-05-11T01:21:04.294Z,11.16
2019-05-11T01:23:33.776Z,11.22
2019-05-11T01:26:03.283Z,11.24
2019-05-11T01:28:32.685Z,11.25
2019-05-11T01:31:02.174Z,11.22
2019-05-11T01:33:32.443Z,11.20
2019-05-11T01:36:01.997Z,11.23
2019-05-11T01:38:31.477Z,11.26
2019-05-11T01:41:00.983Z,11.29
2019-05-11T01:43:30.464Z,11.32
2019-05-11T01:46:00.064Z,11.36
2019-05-11T01:48:29.546Z,11.33
2019-05-11T01:50:59.011Z,11.31
2019-05-11T01:53:28.477Z,11.38
2019-05-11T01:55:57.984Z,11.41
2019-05-11T01:58:27.468Z,11.38
2019-05-11T02:00:56.970Z,11.34
2019-05-11T02:03:26.440Z,11.30
2019-05-11T02:05:55.935Z,11.27
2019-05-11T02:08:25.448Z,11.34
2019-05-11T02:10:54.911Z,11.31
2019-05-11T02:13:24.458Z,11.34
2019-05-11T02:15:53.954Z,11.32
2019-05-11T02:18:23.474Z,11.37
2019-05-11T02:20:52.990Z,11.35
2019-05-11T02:23:22.521Z,11.28
2019-05-11T02:25:51.977Z,11.25
2019-05-11T02:28:21.390Z,11.23
2019-05-11T02:30:50.891Z,11.24
2019-05-11T02:33:20.364Z,11.23
2019-05-11T02:35:49.854Z,11.20
2019-05-11T02:38:19.533Z,11.13
2019-05-11T02:40:49.107Z,11.12
2019-05-11T02:43:18.721Z,11.16
2019-05-11T02:45:48.237Z,11.18
2019-05-11T02:48:17.809Z,11.12
2019-05-11T02:50:47.314Z,11.06
2019-05-11T02:53:16.823Z,11.02
2019-05-11T02:55:46.393Z,10.92
2019-05-11T02:58:15.905Z,10.84
2019-05-11T03:00:46.327Z,10.76
2019-05-11T03:03:15.839Z,10.67
2019-05-11T03:05:45.296Z,10.59
2019-05-11T03:08:14.803Z,10.52
2019-05-11T03:10:44.277Z,10.49
2019-05-11T03:13:13.797Z,10.46
2019-05-11T03:15:43.316Z,10.38
2019-05-11T03:18:12.873Z,10.40
2019-05-11T03:20:42.345Z,10.41
2019-05-11T03:23:11.855Z,10.35
2019-05-11T03:25:41.337Z,10.29
2019-05-11T03:28:10.904Z,10.27
2019-05-11T03:30:40.651Z,10.29
2019-05-11T03:33:10.426Z,10.27
2019-05-11T03:35:40.294Z,10.27
2019-05-11T03:38:09.802Z,10.24
2019-05-11T03:40:39.272Z,10.20
2019-05-11T03:43:08.821Z,10.20
2019-05-11T03:45:38.491Z,10.20
2019-05-11T03:48:07.967Z,10.21
2019-05-11T03:50:37.447Z,10.22
2019-05-11T03:53:06.960Z,10.23
2019-05-11T03:55:36.434Z,10.23
2019-05-11T03:58:05.849Z,10.22
2019-05-11T04:00:35.336Z,10.26
2019-05-11T04:03:04.802Z,10.29
2019-05-11T04:05:34.262Z,10.33
2019-05-11T04:08:03.908Z,10.39
2019-05-11T04:10:33.368Z,10.43
2019-05-11T04:13:02.857Z,10.46
2019-05-11T04:15:32.281Z,10.53
2019-05-11T04:18:01.760Z,10.61
2019-05-11T04:20:31.261Z,10.64
2019-05-11T04:23:00.740Z,10.68
2019-05-11T04:25:30.209Z,10.73
2019-05-11T04:27:59.729Z,10.78
2019-05-11T04:30:29.192Z,10.82
2019-05-11T04:32:58.617Z,10.84
2019-05-11T04:35:28.180Z,10.92
2019-05-11T04:37:57.724Z,11.02
2019-05-11T04:40:27.200Z,11.05
2019-05-11T04:42:56.776Z,11.15
2019-05-11T04:45:26.353Z,11.29
2019-05-11T04:47:55.819Z,11.40
2019-05-11T04:50:25.462Z,11.46
2019-05-11T04:52:55.000Z,11.63
2019-05-11T04:55:24.487Z,11.65
2019-05-11T04:57:54.030Z,11.69
2019-05-11T05:00:23.519Z,11.78
2019-05-11T05:02:53.061Z,11.87
2019-05-11T05:05:22.680Z,11.88
2019-05-11T05:07:52.280Z,11.98
2019-05-11T05:10:22.378Z,12.06
2019-05-11T05:12:53.373Z,12.07
2019-05-11T05:15:23.342Z,11.98
2019-05-11T05:17:52.919Z,12.10
2019-05-11T05:20:22.455Z,12.31
2019-05-11T05:22:51.936Z,12.62
2019-05-11T05:25:21.460Z,12.84
2019-05-11T05:27:50.931Z,12.80
2019-05-11T05:30:20.404Z,12.70
2019-05-11T05:32:49.988Z,12.68
2019-05-11T05:35:19.458Z,12.72
2019-05-11T05:37:49.037Z,12.75
2019-05-11T05:40:18.537Z,12.81
2019-05-11T05:42:48.122Z,12.86
2019-05-11T05:45:17.588Z,12.97
2019-05-11T05:47:47.092Z,13.09
2019-05-11T05:50:16.575Z,13.18
2019-05-11T05:52:46.137Z,13.25
2019-05-11T05:55:15.720Z,13.26
2019-05-11T05:57:45.274Z,13.37
2019-05-11T06:00:14.766Z,13.44
2019-05-11T06:02:44.270Z,13.55
2019-05-11T06:05:13.738Z,13.55
2019-05-11T06:07:43.239Z,13.59
2019-05-11T06:10:12.718Z,13.54
2019-05-11T06:12:42.200Z,13.54
2019-05-11T06:15:11.720Z,13.51
2019-05-11T06:17:41.196Z,13.51
2019-05-11T06:20:10.802Z,13.50
2019-05-11T06:22:40.420Z,13.48
2019-05-11T06:25:09.891Z,13.53
2019-05-11T06:27:39.354Z,13.54
2019-05-11T06:30:08.959Z,13.48
2019-05-11T06:32:38.436Z,13.47
2019-05-11T06:35:08.461Z,13.57
2019-05-11T06:37:37.945Z,13.66
2019-05-11T06:40:08.327Z,13.83
2019-05-11T06:42:38.569Z,13.96
2019-05-11T06:45:08.052Z,14.04
2019-05-11T06:47:37.680Z,14.14
2019-05-11T06:50:07.204Z,14.26
2019-05-11T06:52:36.674Z,14.37
2019-05-11T06:55:06.134Z,14.50
2019-05-11T06:57:35.642Z,14.56
2019-05-11T07:00:05.813Z,14.61
2019-05-11T07:02:35.288Z,14.75
2019-05-11T07:05:06.615Z,14.70
2019-05-11T07:07:47.219Z,14.62
2019-05-11T07:10:07.549Z,14.61
2019-05-11T07:12:37.044Z,14.64
2019-05-11T07:15:08.228Z,14.60
2019-05-11T07:17:37.963Z,14.58
2019-05-11T07:20:09.107Z,14.66
2019-05-11T07:22:38.577Z,14.75
2019-05-11T07:25:08.128Z,14.73
2019-05-11T07:27:37.679Z,14.82
2019-05-11T07:30:08.704Z,15.09
2019-05-11T07:32:38.435Z,15.30
2019-05-11T07:35:08.820Z,15.42
2019-05-11T07:37:38.901Z,15.59
2019-05-11T07:40:08.501Z,15.80
2019-05-11T07:42:38.306Z,16.03
2019-05-11T07:45:09.046Z,16.11
2019-05-11T07:47:38.699Z,16.29
2019-05-11T07:50:08.717Z,16.56
2019-05-11T07:52:38.204Z,16.74
2019-05-11T07:55:08.640Z,16.92
2019-05-11T07:57:39.219Z,17.05
2019-05-11T08:00:09.039Z,17.06
2019-05-11T08:02:38.946Z,17.20
2019-05-11T08:05:08.857Z,17.47
2019-05-11T08:07:38.577Z,17.71
2019-05-11T08:10:08.439Z,17.88
2019-05-11T08:12:39.172Z,17.91
2019-05-11T08:15:13.189Z,17.97
2019-05-11T08:17:40.733Z,18.14
2019-05-11T08:20:10.294Z,18.32
2019-05-11T08:22:39.774Z,18.48
2019-05-11T08:25:09.473Z,18.59
2019-05-11T08:27:39.121Z,18.68
2019-05-11T08:30:12.074Z,18.79
2019-05-11T08:32:41.567Z,18.57
2019-05-11T08:35:11.037Z,18.43
2019-05-11T08:37:40.521Z,18.59
2019-05-11T08:40:10.126Z,18.86
2019-05-11T08:42:39.625Z,19.06
2019-05-11T08:45:18.992Z,19.17
2019-05-11T08:47:40.499Z,19.28
2019-05-11T08:50:10.268Z,19.39
2019-05-11T08:52:39.753Z,19.42
2019-05-11T08:55:09.658Z,19.53
2019-05-11T08:57:39.141Z,19.64
2019-05-11T09:00:10.963Z,19.78
2019-05-11T09:02:40.472Z,20.02
2019-05-11T09:05:10.034Z,20.21
2019-05-11T09:07:39.501Z,20.35
2019-05-11T09:10:09.012Z,20.35
2019-05-11T09:12:38.577Z,20.36
2019-05-11T09:15:08.889Z,20.42
2019-05-11T09:17:38.650Z,20.50
2019-05-11T09:20:08.826Z,20.75
2019-05-11T09:22:38.487Z,20.80
2019-05-11T09:25:09.022Z,20.84
2019-05-11T09:27:38.532Z,20.81
2019-05-11T09:30:08.575Z,21.09
2019-05-11T09:32:38.641Z,21.44
2019-05-11T09:35:08.524Z,21.80
2019-05-11T09:37:38.334Z,22.17
2019-05-11T09:40:08.087Z,22.46
2019-05-11T09:42:38.827Z,22.65
2019-05-11T09:45:08.526Z,22.54
2019-05-11T09:47:38.766Z,22.32
2019-05-11T09:50:08.814Z,22.42
2019-05-11T09:52:38.710Z,22.76
2019-05-11T09:55:08.928Z,23.13
2019-05-11T09:57:38.736Z,23.59
2019-05-11T10:00:08.862Z,23.73
2019-05-11T10:02:38.879Z,23.79
2019-05-11T10:05:08.638Z,24.04
2019-05-11T10:07:38.349Z,23.99
2019-05-11T10:10:09.405Z,24.08
2019-05-11T10:12:39.036Z,23.74
2019-05-11T10:15:08.731Z,23.52
2019-05-11T10:17:38.644Z,23.57
2019-05-11T10:20:09.472Z,23.85
2019-05-11T10:22:38.937Z,23.80
2019-05-11T10:25:09.195Z,23.65
2019-05-11T10:27:38.776Z,23.80
2019-05-11T10:30:08.878Z,24.43
2019-05-11T10:32:39.057Z,25.31
2019-05-11T10:35:08.532Z,25.98
2019-05-11T10:37:38.952Z,26.72
2019-05-11T10:40:09.529Z,27.23
2019-05-11T10:42:39.354Z,27.05
2019-05-11T10:45:09.389Z,26.78
2019-05-11T10:47:39.144Z,26.25
2019-05-11T10:50:08.864Z,26.37
2019-05-11T10:52:38.323Z,26.63
2019-05-11T10:55:08.901Z,27.20
2019-05-11T10:57:38.890Z,27.56
2019-05-11T11:00:09.185Z,27.55
2019-05-11T11:02:38.838Z,26.74
2019-05-11T11:05:08.448Z,25.91
2019-05-11T11:07:38.533Z,25.65
2019-05-11T11:10:09.065Z,25.97
2019-05-11T11:12:38.781Z,26.38
2019-05-11T11:15:09.033Z,26.76
2019-05-11T11:17:38.538Z,27.14
2019-05-11T11:20:08.798Z,27.05
2019-05-11T11:22:43.500Z,26.94
2019-05-11T11:25:09.614Z,27.38
2019-05-11T11:27:39.089Z,27.70
2019-05-11T11:30:09.320Z,27.60
2019-05-11T11:32:58.845Z,27.97
2019-05-11T11:35:28.665Z,28.08
2019-05-11T11:37:58.587Z,28.19
2019-05-11T11:40:28.379Z,28.29
2019-05-11T11:42:58.204Z,28.55
2019-05-11T11:45:28.829Z,28.48
2019-05-11T11:47:58.618Z,28.49
2019-05-11T11:50:28.474Z,28.63
2019-05-11T11:52:58.079Z,29.01
2019-05-11T11:55:28.970Z,29.44
2019-05-11T11:57:59.043Z,29.31
2019-05-11T12:00:29.099Z,29.61
2019-05-11T12:02:58.771Z,30.24
2019-05-11T12:05:28.479Z,30.92
2019-05-11T12:07:58.206Z,30.65
2019-05-11T12:10:28.699Z,31.06
2019-05-11T12:13:44.163Z,30.73
2019-05-11T12:16:13.662Z,30.71
2019-05-11T12:18:43.164Z,31.24
2019-05-11T12:21:12.772Z,31.71
2019-05-11T12:23:42.321Z,31.75
2019-05-11T12:26:11.757Z,31.83
2019-05-11T12:28:41.156Z,32.46
2019-05-11T12:31:11.000Z,32.98
2019-05-11T12:33:40.464Z,32.51
2019-05-11T12:36:09.971Z,31.66
2019-05-11T12:38:39.653Z,30.73
2019-05-11T12:41:09.125Z,30.34
2019-05-11T12:43:38.606Z,30.41
2019-05-11T12:46:08.253Z,30.46
2019-05-11T12:48:38.074Z,30.52
2019-05-11T12:51:08.175Z,30.69
2019-05-11T12:53:38.491Z,30.95
2019-05-11T12:56:08.500Z,30.99
2019-05-11T12:58:39.600Z,30.52
2019-05-11T13:01:09.410Z,30.28
2019-05-11T13:03:38.884Z,30.34
2019-05-11T13:06:08.483Z,30.46
2019-05-11T13:08:38.881Z,30.10
2019-05-11T13:11:08.855Z,28.82
2019-05-11T13:13:38.453Z,28.36
2019-05-11T13:16:08.704Z,28.43
2019-05-11T13:18:38.612Z,28.39
2019-05-11T13:21:08.315Z,28.97
2019-05-11T13:23:38.354Z,30.44
2019-05-11T13:26:08.811Z,31.86
2019-05-11T13:28:38.575Z,32.29
2019-05-11T13:31:08.370Z,33.64
2019-05-11T13:33:38.531Z,35.36
2019-05-11T13:36:09.049Z,36.44
2019-05-11T13:38:38.978Z,38.43
2019-05-11T13:41:08.539Z,39.92
2019-05-11T13:43:38.615Z,40.02
2019-05-11T13:47:02.937Z,39.33
2019-05-11T13:49:32.752Z,35.90
2019-05-11T13:52:02.303Z,33.59
2019-05-11T13:54:31.834Z,32.15
2019-05-11T13:57:01.311Z,32.07
2019-05-11T13:59:30.819Z,33.56
2019-05-11T14:02:00.224Z,34.37
2019-05-11T14:04:29.706Z,33.89
2019-05-11T14:06:59.395Z,34.67
2019-05-11T14:09:29.687Z,35.85
2019-05-11T14:11:59.187Z,35.11
2019-05-11T14:14:29.110Z,35.34
2019-05-11T14:16:58.990Z,33.91
2019-05-11T14:19:29.184Z,32.41
2019-05-11T14:21:59.322Z,33.06
2019-05-11T14:24:28.969Z,34.26
2019-05-11T14:26:58.481Z,33.91
2019-05-11T14:29:28.553Z,33.24
2019-05-11T14:31:58.284Z,33.11
2019-05-11T14:34:28.482Z,32.00
2019-05-11T14:36:58.355Z,30.82
2019-05-11T14:39:28.126Z,29.56
2019-05-11T14:41:58.691Z,28.94
2019-05-11T14:44:28.789Z,29.43
2019-05-11T14:46:59.234Z,31.08
2019-05-11T14:49:29.155Z,32.35
2019-05-11T14:51:58.663Z,33.28
2019-05-11T14:54:28.827Z,34.06
2019-05-11T14:56:58.778Z,33.90
2019-05-11T14:59:28.744Z,34.23
2019-05-11T15:01:58.500Z,34.41
2019-05-11T15:04:28.693Z,33.64
2019-05-11T15:06:58.380Z,33.03
2019-05-11T15:09:28.553Z,32.51
2019-05-11T15:11:58.271Z,32.14
2019-05-11T15:14:28.916Z,31.61
2019-05-11T15:16:58.506Z,30.64
2019-05-11T15:19:28.019Z,30.39
2019-05-11T15:21:58.170Z,30.85
2019-05-11T15:24:28.742Z,31.09
2019-05-11T15:26:58.523Z,30.94
2019-05-11T15:29:28.757Z,30.35
2019-05-11T15:31:58.411Z,30.08
2019-05-11T15:34:28.840Z,29.48
2019-05-11T15:36:58.564Z,28.50
2019-05-11T15:39:28.670Z,28.18
2019-05-11T15:42:09.332Z,28.13
2019-05-11T15:44:29.679Z,27.47
2019-05-11T15:46:59.177Z,27.43
2019-05-11T15:49:28.647Z,27.41
2019-05-11T15:51:58.156Z,27.26
2019-05-11T15:54:28.798Z,27.12
2019-05-11T15:56:59.974Z,26.76
2019-05-11T15:59:30.533Z,26.53
2019-05-11T16:02:00.464Z,25.96
2019-05-11T16:04:29.961Z,25.73
2019-05-11T16:07:00.112Z,25.79
2019-05-11T16:09:29.802Z,25.76
2019-05-11T16:11:59.282Z,25.48
2019-05-11T16:14:28.803Z,25.19
2019-05-11T16:16:58.537Z,24.98
2019-05-11T16:19:28.255Z,25.03
2019-05-11T16:21:57.823Z,25.25
2019-05-11T16:24:27.422Z,25.31
2019-05-11T16:26:58.251Z,25.68
2019-05-11T16:29:28.203Z,25.84
2019-05-11T16:31:57.979Z,25.98
2019-05-11T16:34:27.869Z,25.93
2019-05-11T16:36:57.480Z,25.65
2019-05-11T16:39:27.981Z,25.28
2019-05-11T16:42:17.103Z,24.90
2019-05-11T16:44:48.303Z,24.38
2019-05-11T16:47:18.178Z,24.10
2019-05-11T16:49:47.822Z,23.87
2019-05-11T16:52:18.330Z,23.70
2019-05-11T16:54:48.048Z,23.55
2019-05-11T16:57:17.812Z,23.37
2019-05-11T16:59:48.378Z,23.26
2019-05-11T17:02:18.784Z,23.11
2019-05-11T17:04:48.461Z,23.02
2019-05-11T17:07:18.041Z,22.92
2019-05-11T17:09:48.294Z,22.90
2019-05-11T17:12:18.155Z,22.94
2019-05-11T17:15:00.381Z,22.93
2019-05-11T17:17:29.888Z,22.83
2019-05-11T17:19:59.421Z,22.74
2019-05-11T17:22:28.937Z,22.47
2019-05-11T17:24:58.939Z,22.34
2019-05-11T17:27:28.728Z,22.15
2019-05-11T17:29:59.308Z,21.98
2019-05-11T17:32:29.496Z,21.87
2019-05-11T17:34:59.052Z,21.81
2019-05-11T17:37:28.767Z,21.80
2019-05-11T17:39:58.708Z,21.85
2019-05-11T17:42:28.606Z,21.90
2019-05-11T17:44:58.900Z,21.83
2019-05-11T17:47:47.962Z,21.76
2019-05-11T17:50:19.091Z,21.63
2019-05-11T17:52:48.817Z,21.57
2019-05-11T17:55:18.691Z,21.55
2019-05-11T17:57:49.183Z,21.48
2019-05-11T18:00:20.717Z,21.44
2019-05-11T18:02:50.435Z,21.33
2019-05-11T18:05:19.902Z,21.24
2019-05-11T18:07:49.315Z,21.21
2019-05-11T18:10:18.794Z,21.15
2019-05-11T18:12:48.890Z,21.08
2019-05-11T18:15:19.066Z,21.05
2019-05-11T18:17:49.019Z,21.04
2019-05-11T18:20:21.749Z,21.02
2019-05-11T18:22:50.259Z,21.03
2019-05-11T18:25:19.733Z,21.00
2019-05-11T18:27:49.215Z,20.99
2019-05-11T18:30:18.729Z,20.97
2019-05-11T18:32:49.240Z,20.96
2019-05-11T18:35:19.668Z,20.91
2019-05-11T18:37:49.332Z,20.92
2019-05-11T18:40:19.039Z,20.87
2019-05-11T18:42:49.191Z,20.78
2019-05-11T18:45:19.295Z,20.73
2019-05-11T18:47:49.473Z,20.29
2019-05-11T18:50:30.134Z,19.72
2019-05-11T18:52:50.486Z,19.27
2019-05-11T18:55:19.982Z,18.98
2019-05-11T18:57:49.577Z,18.72
2019-05-11T19:00:19.832Z,18.42
2019-05-11T19:02:49.905Z,18.08
2019-05-11T19:05:19.554Z,17.69
2019-05-11T19:07:49.027Z,17.31
2019-05-11T19:10:18.648Z,17.24
2019-05-11T19:12:48.990Z,16.99
2019-05-11T19:15:19.236Z,16.52
2019-05-11T19:17:49.494Z,16.23
2019-05-11T19:20:19.141Z,15.95
2019-05-11T19:22:48.612Z,15.85
2019-05-11T19:25:18.499Z,15.75
2019-05-11T19:27:50.687Z,15.55
2019-05-11T19:30:20.232Z,15.43
2019-05-11T19:32:50.308Z,15.33
2019-05-11T19:35:21.301Z,15.20
2019-05-11T19:37:51.513Z,15.09
2019-05-11T19:40:21.046Z,14.94
2019-05-11T19:42:53.805Z,14.79
2019-05-11T19:45:24.044Z,14.60
2019-05-11T19:47:54.241Z,14.57
2019-05-11T19:50:23.701Z,14.62
2019-05-11T19:52:53.517Z,14.59
2019-05-11T19:55:22.987Z,14.69
2019-05-11T19:57:52.793Z,14.72
2019-05-11T20:00:22.457Z,14.57
2019-05-11T20:02:51.923Z,14.43
2019-05-11T20:05:21.402Z,14.32
2019-05-11T20:07:50.909Z,14.33
2019-05-11T20:10:20.398Z,14.27
2019-05-11T20:12:50.126Z,14.35
2019-05-11T20:15:19.549Z,14.49
2019-05-11T20:17:49.249Z,14.57
2019-05-11T20:20:19.027Z,14.54
2019-05-11T20:22:48.947Z,14.45
2019-05-11T20:25:19.365Z,14.41
2019-05-11T20:27:49.229Z,14.30
2019-05-11T20:30:19.570Z,14.31
2019-05-11T20:32:49.506Z,14.20
2019-05-11T20:35:19.217Z,14.17
2019-05-11T20:37:48.703Z,14.12
2019-05-11T20:40:18.602Z,14.00
2019-05-11T20:42:48.598Z,13.87
2019-05-11T20:45:18.829Z,13.91
2019-05-11T20:47:49.097Z,13.87
2019-05-11T20:50:18.946Z,13.78
2019-05-11T20:52:49.235Z,13.81
2019-05-11T20:55:18.720Z,13.69
2019-05-11T20:57:48.746Z,13.66
2019-05-11T21:00:18.803Z,13.65
2019-05-11T21:02:49.153Z,13.63
2019-05-11T21:05:18.933Z,13.62
2019-05-11T21:07:48.407Z,13.55
2019-05-11T21:10:17.926Z,13.44
2019-05-11T21:12:47.442Z,13.50
2019-05-11T21:15:16.920Z,13.53
2019-05-11T21:17:50.182Z,13.53
2019-05-11T21:20:18.159Z,13.49
2019-05-11T21:22:48.636Z,13.51
2019-05-11T21:25:18.423Z,13.56
2019-05-11T21:27:48.667Z,13.58
2019-05-11T21:30:18.653Z,13.54
2019-05-11T21:32:48.367Z,13.56
2019-05-11T21:35:19.181Z,13.57
2019-05-11T21:37:49.031Z,13.48
2019-05-11T21:40:18.598Z,13.53
2019-05-11T21:42:48.165Z,13.42
2019-05-11T21:45:18.365Z,13.44
2019-05-11T21:47:49.034Z,13.46
2019-05-11T21:50:19.354Z,13.51
2019-05-11T21:52:48.977Z,13.58
2019-05-11T21:55:18.449Z,13.55
2019-05-11T21:57:49.784Z,13.60
2019-05-11T22:00:19.204Z,13.47
2019-05-11T22:02:48.825Z,13.51
2019-05-11T22:05:20.876Z,13.45
2019-05-11T22:07:49.738Z,13.46
2019-05-11T22:10:19.222Z,13.41
2019-05-11T22:12:49.144Z,13.47
2019-05-11T22:15:18.825Z,13.43
2019-05-11T22:17:48.500Z,13.46
2019-05-11T22:20:18.525Z,13.47
2019-05-11T22:22:48.539Z,13.43
2019-05-11T22:25:18.428Z,13.53
2019-05-11T22:27:48.817Z,13.47
2019-05-11T22:30:18.792Z,13.45
2019-05-11T22:32:48.372Z,13.56
2019-05-11T22:35:18.538Z,13.53
2019-05-11T22:37:49.095Z,13.45
2019-05-11T22:40:18.824Z,13.43
2019-05-11T22:42:48.301Z,13.41
2019-05-11T22:45:18.737Z,13.34
2019-05-11T22:47:48.567Z,13.20
2019-05-11T22:50:18.837Z,13.09
2019-05-11T22:52:48.817Z,13.03
2019-05-11T22:55:19.073Z,12.97
2019-05-11T22:57:48.838Z,12.93
2019-05-11T23:00:28.671Z,12.96
2019-05-11T23:02:58.757Z,12.90
2019-05-11T23:05:29.962Z,12.82
2019-05-11T23:07:59.610Z,12.65
2019-05-11T23:10:29.091Z,12.58
2019-05-11T23:12:58.571Z,12.56
2019-05-11T23:15:28.086Z,12.53
2019-05-11T23:17:59.796Z,12.52
2019-05-11T23:20:30.166Z,12.53
2019-05-11T23:23:01.682Z,12.49
2019-05-11T23:25:31.727Z,12.49
2019-05-11T23:28:01.187Z,12.49
2019-05-11T23:30:30.733Z,12.40
2019-05-11T23:33:00.191Z,12.31
2019-05-11T23:35:30.384Z,12.33
2019-05-11T23:37:59.874Z,12.26
2019-05-11T23:40:29.385Z,12.18
2019-05-11T23:42:58.939Z,12.10
2019-05-11T23:45:28.477Z,12.13
2019-05-11T23:47:58.877Z,12.13
2019-05-11T23:50:28.665Z,12.06
2019-05-11T23:53:06.452Z,11.99
2019-05-11T23:55:29.887Z,12.02
2019-05-11T23:57:59.368Z,11.99
